sensor_id;sensor_type;location;lat;lon;timestamp;temperature;humidity
45807;DHT22;31507;51.494;7.518;2024-01-30T00:02:14;7.90;99.90
45807;DHT22;31507;51.494;7.518;2024-01-30T00:04:39;7.80;99.90
45807;DHT22;31507;51.494;7.518;2024-01-30T00:07:05;7.80;99.90
45807;DHT22;31507;51.494;7.518;2024-01-30T00:09:30;7.80;99.90
45807;DHT22;31507;51.494;7.518;2024-01-30T00:11:56;7.70;99.90
45807;DHT22;31507;51.494;7.518;2024-01-30T00:14:21;7.80;99.90
45807;DHT22;31507;51.494;7.518;2024-01-30T00:16:47;7.70;99.90
45807;DHT22;31507;51.494;7.518;2024-01-30T00:19:12;7.70;99.90
45807;DHT22;31507;51.494;7.518;2024-01-30T00:21:38;7.70;99.90
45807;DHT22;31507;51.494;7.518;2024-01-30T00:24:03;7.70;99.90
45807;DHT22;31507;51.494;7.518;2024-01-30T00:26:29;7.70;99.90
45807;DHT22;31507;51.494;7.518;2024-01-30T00:28:55;7.70;99.90
45807;DHT22;31507;51.494;7.518;2024-01-30T00:31:20;7.60;99.90
45807;DHT22;31507;51.494;7.518;2024-01-30T00:33:45;7.60;99.90
45807;DHT22;31507;51.494;7.518;2024-01-30T00:36:11;7.60;99.90
45807;DHT22;31507;51.494;7.518;2024-01-30T00:38:36;7.60;99.90
45807;DHT22;31507;51.494;7.518;2024-01-30T00:41:02;7.70;99.90
45807;DHT22;31507;51.494;7.518;2024-01-30T00:43:28;7.70;99.90
45807;DHT22;31507;51.494;7.518;2024-01-30T00:45:53;7.60;99.90
45807;DHT22;31507;51.494;7.518;2024-01-30T00:48:19;7.60;99.90
45807;DHT22;31507;51.494;7.518;2024-01-30T00:50:44;7.50;99.90
45807;DHT22;31507;51.494;7.518;2024-01-30T00:53:10;7.50;99.90
45807;DHT22;31507;51.494;7.518;2024-01-30T00:55:36;7.50;99.90
45807;DHT22;31507;51.494;7.518;2024-01-30T00:58:02;7.60;99.90
45807;DHT22;31507;51.494;7.518;2024-01-30T01:00:28;7.60;99.90
45807;DHT22;31507;51.494;7.518;2024-01-30T01:02:57;7.60;99.90
45807;DHT22;31507;51.494;7.518;2024-01-30T01:05:23;7.70;99.90
45807;DHT22;31507;51.494;7.518;2024-01-30T01:07:49;7.70;99.90
45807;DHT22;31507;51.494;7.518;2024-01-30T01:10:14;7.60;99.90
45807;DHT22;31507;51.494;7.518;2024-01-30T01:12:41;7.60;99.90
45807;DHT22;31507;51.494;7.518;2024-01-30T01:15:07;7.60;99.90
45807;DHT22;31507;51.494;7.518;2024-01-30T01:17:35;7.60;99.90
45807;DHT22;31507;51.494;7.518;2024-01-30T01:20:01;7.60;99.90
45807;DHT22;31507;51.494;7.518;2024-01-30T01:22:27;7.70;99.90
45807;DHT22;31507;51.494;7.518;2024-01-30T01:24:52;7.70;99.90
45807;DHT22;31507;51.494;7.518;2024-01-30T01:27:18;7.80;99.90
45807;DHT22;31507;51.494;7.518;2024-01-30T01:29:43;7.80;99.90
45807;DHT22;31507;51.494;7.518;2024-01-30T01:32:09;7.80;99.90
45807;DHT22;31507;51.494;7.518;2024-01-30T01:34:34;7.90;99.90
45807;DHT22;31507;51.494;7.518;2024-01-30T01:37:00;7.80;99.90
45807;DHT22;31507;51.494;7.518;2024-01-30T01:39:25;7.80;99.90
45807;DHT22;31507;51.494;7.518;2024-01-30T01:41:51;7.80;99.90
45807;DHT22;31507;51.494;7.518;2024-01-30T01:44:17;7.80;99.90
45807;DHT22;31507;51.494;7.518;2024-01-30T01:46:43;7.80;99.90
45807;DHT22;31507;51.494;7.518;2024-01-30T01:49:08;7.90;99.90
45807;DHT22;31507;51.494;7.518;2024-01-30T01:51:35;7.90;99.90
45807;DHT22;31507;51.494;7.518;2024-01-30T01:54:04;7.90;99.90
45807;DHT22;31507;51.494;7.518;2024-01-30T01:56:30;7.90;99.90
45807;DHT22;31507;51.494;7.518;2024-01-30T01:58:58;7.90;99.90
45807;DHT22;31507;51.494;7.518;2024-01-30T02:01:24;7.80;99.90
45807;DHT22;31507;51.494;7.518;2024-01-30T02:03:50;7.80;99.90
45807;DHT22;31507;51.494;7.518;2024-01-30T02:06:16;7.80;99.90
45807;DHT22;31507;51.494;7.518;2024-01-30T02:08:41;7.80;99.90
45807;DHT22;31507;51.494;7.518;2024-01-30T02:11:07;7.80;99.90
45807;DHT22;31507;51.494;7.518;2024-01-30T02:13:33;7.80;99.90
45807;DHT22;31507;51.494;7.518;2024-01-30T02:15:59;7.70;99.90
45807;DHT22;31507;51.494;7.518;2024-01-30T02:18:25;7.70;99.90
45807;DHT22;31507;51.494;7.518;2024-01-30T02:20:51;7.60;99.90
45807;DHT22;31507;51.494;7.518;2024-01-30T02:23:19;7.60;99.90
45807;DHT22;31507;51.494;7.518;2024-01-30T02:25:44;7.60;99.90
45807;DHT22;31507;51.494;7.518;2024-01-30T02:28:10;7.60;99.90
45807;DHT22;31507;51.494;7.518;2024-01-30T02:30:37;7.60;99.90
45807;DHT22;31507;51.494;7.518;2024-01-30T02:33:03;7.60;99.90
45807;DHT22;31507;51.494;7.518;2024-01-30T02:35:28;7.60;99.90
45807;DHT22;31507;51.494;7.518;2024-01-30T02:37:54;7.70;99.90
45807;DHT22;31507;51.494;7.518;2024-01-30T02:40:19;7.60;99.90
45807;DHT22;31507;51.494;7.518;2024-01-30T02:42:45;7.60;99.90
45807;DHT22;31507;51.494;7.518;2024-01-30T02:45:10;7.60;99.90
45807;DHT22;31507;51.494;7.518;2024-01-30T02:47:36;7.50;99.90
45807;DHT22;31507;51.494;7.518;2024-01-30T02:50:02;7.60;99.90
45807;DHT22;31507;51.494;7.518;2024-01-30T02:52:27;7.60;99.90
45807;DHT22;31507;51.494;7.518;2024-01-30T02:54:53;7.60;99.90
45807;DHT22;31507;51.494;7.518;2024-01-30T02:57:18;7.60;99.90
45807;DHT22;31507;51.494;7.518;2024-01-30T02:59:44;7.60;99.90
45807;DHT22;31507;51.494;7.518;2024-01-30T03:02:09;7.60;99.90
45807;DHT22;31507;51.494;7.518;2024-01-30T03:04:35;7.60;99.90
45807;DHT22;31507;51.494;7.518;2024-01-30T03:07:00;7.60;99.90
45807;DHT22;31507;51.494;7.518;2024-01-30T03:09:26;7.60;99.90
45807;DHT22;31507;51.494;7.518;2024-01-30T03:11:51;7.60;99.90
45807;DHT22;31507;51.494;7.518;2024-01-30T03:14:17;7.60;99.90
45807;DHT22;31507;51.494;7.518;2024-01-30T03:16:42;7.60;99.90
45807;DHT22;31507;51.494;7.518;2024-01-30T03:19:08;7.60;99.90
45807;DHT22;31507;51.494;7.518;2024-01-30T03:21:34;7.60;99.90
45807;DHT22;31507;51.494;7.518;2024-01-30T03:24:00;7.70;99.90
45807;DHT22;31507;51.494;7.518;2024-01-30T03:26:25;7.70;99.90
45807;DHT22;31507;51.494;7.518;2024-01-30T03:28:51;7.70;99.90
45807;DHT22;31507;51.494;7.518;2024-01-30T03:31:16;7.70;99.90
45807;DHT22;31507;51.494;7.518;2024-01-30T03:33:42;7.70;99.90
45807;DHT22;31507;51.494;7.518;2024-01-30T03:36:08;7.70;99.90
45807;DHT22;31507;51.494;7.518;2024-01-30T03:38:33;7.70;99.90
45807;DHT22;31507;51.494;7.518;2024-01-30T03:40:59;7.70;99.90
45807;DHT22;31507;51.494;7.518;2024-01-30T03:43:25;7.70;99.90
45807;DHT22;31507;51.494;7.518;2024-01-30T03:45:50;7.70;99.90
45807;DHT22;31507;51.494;7.518;2024-01-30T03:48:16;7.70;99.90
45807;DHT22;31507;51.494;7.518;2024-01-30T03:50:41;7.70;99.90
45807;DHT22;31507;51.494;7.518;2024-01-30T03:53:07;7.70;99.90
45807;DHT22;31507;51.494;7.518;2024-01-30T03:55:32;7.60;99.90
45807;DHT22;31507;51.494;7.518;2024-01-30T03:57:58;7.70;99.90
45807;DHT22;31507;51.494;7.518;2024-01-30T04:00:23;7.70;99.90
45807;DHT22;31507;51.494;7.518;2024-01-30T04:02:49;7.70;99.90
45807;DHT22;31507;51.494;7.518;2024-01-30T04:05:16;7.70;99.90
45807;DHT22;31507;51.494;7.518;2024-01-30T04:07:42;7.80;99.90
45807;DHT22;31507;51.494;7.518;2024-01-30T04:10:08;7.70;99.90
45807;DHT22;31507;51.494;7.518;2024-01-30T04:12:33;7.80;99.90
45807;DHT22;31507;51.494;7.518;2024-01-30T04:14:59;7.70;99.90
45807;DHT22;31507;51.494;7.518;2024-01-30T04:17:24;7.70;99.90
45807;DHT22;31507;51.494;7.518;2024-01-30T04:19:50;7.80;99.90
45807;DHT22;31507;51.494;7.518;2024-01-30T04:22:15;7.80;99.90
45807;DHT22;31507;51.494;7.518;2024-01-30T04:24:41;7.80;99.90
45807;DHT22;31507;51.494;7.518;2024-01-30T04:27:06;7.80;99.90
45807;DHT22;31507;51.494;7.518;2024-01-30T04:29:32;7.80;99.90
45807;DHT22;31507;51.494;7.518;2024-01-30T04:31:58;7.80;99.90
45807;DHT22;31507;51.494;7.518;2024-01-30T04:34:24;7.70;99.90
45807;DHT22;31507;51.494;7.518;2024-01-30T04:36:49;7.70;99.90
45807;DHT22;31507;51.494;7.518;2024-01-30T04:39:15;7.70;99.90
45807;DHT22;31507;51.494;7.518;2024-01-30T04:41:40;7.70;99.90
45807;DHT22;31507;51.494;7.518;2024-01-30T04:44:06;7.60;99.90
45807;DHT22;31507;51.494;7.518;2024-01-30T04:46:32;7.60;99.90
45807;DHT22;31507;51.494;7.518;2024-01-30T04:48:59;7.60;99.90
45807;DHT22;31507;51.494;7.518;2024-01-30T04:51:25;7.70;99.90
45807;DHT22;31507;51.494;7.518;2024-01-30T04:53:50;7.70;99.90
45807;DHT22;31507;51.494;7.518;2024-01-30T04:56:16;7.70;99.90
45807;DHT22;31507;51.494;7.518;2024-01-30T04:58:41;7.60;99.90
45807;DHT22;31507;51.494;7.518;2024-01-30T05:01:07;7.50;99.90
45807;DHT22;31507;51.494;7.518;2024-01-30T05:03:33;7.50;99.90
45807;DHT22;31507;51.494;7.518;2024-01-30T05:05:59;7.50;99.90
45807;DHT22;31507;51.494;7.518;2024-01-30T05:08:24;7.50;99.90
45807;DHT22;31507;51.494;7.518;2024-01-30T05:10:50;7.50;99.90
45807;DHT22;31507;51.494;7.518;2024-01-30T05:13:15;7.50;99.90
45807;DHT22;31507;51.494;7.518;2024-01-30T05:15:41;7.50;99.90
45807;DHT22;31507;51.494;7.518;2024-01-30T05:18:06;7.40;99.90
45807;DHT22;31507;51.494;7.518;2024-01-30T05:20:32;7.40;99.90
45807;DHT22;31507;51.494;7.518;2024-01-30T05:22:57;7.30;99.90
45807;DHT22;31507;51.494;7.518;2024-01-30T05:25:23;7.20;99.90
45807;DHT22;31507;51.494;7.518;2024-01-30T05:27:48;7.20;99.90
45807;DHT22;31507;51.494;7.518;2024-01-30T05:30:15;7.30;99.90
45807;DHT22;31507;51.494;7.518;2024-01-30T05:32:40;7.30;99.90
45807;DHT22;31507;51.494;7.518;2024-01-30T05:35:06;7.40;99.90
45807;DHT22;31507;51.494;7.518;2024-01-30T05:37:33;7.40;99.90
45807;DHT22;31507;51.494;7.518;2024-01-30T05:39:58;7.40;99.90
45807;DHT22;31507;51.494;7.518;2024-01-30T05:42:24;7.50;99.90
45807;DHT22;31507;51.494;7.518;2024-01-30T05:44:50;7.50;99.90
45807;DHT22;31507;51.494;7.518;2024-01-30T05:47:15;7.50;99.90
45807;DHT22;31507;51.494;7.518;2024-01-30T05:49:41;7.50;99.90
45807;DHT22;31507;51.494;7.518;2024-01-30T05:52:06;7.50;99.90
45807;DHT22;31507;51.494;7.518;2024-01-30T05:54:32;7.50;99.90
45807;DHT22;31507;51.494;7.518;2024-01-30T05:56:57;7.50;99.90
45807;DHT22;31507;51.494;7.518;2024-01-30T05:59:23;7.40;99.90
45807;DHT22;31507;51.494;7.518;2024-01-30T06:01:48;7.40;99.90
45807;DHT22;31507;51.494;7.518;2024-01-30T06:04:14;7.40;99.90
45807;DHT22;31507;51.494;7.518;2024-01-30T06:06:40;7.40;99.90
45807;DHT22;31507;51.494;7.518;2024-01-30T06:09:05;7.30;99.90
45807;DHT22;31507;51.494;7.518;2024-01-30T06:11:31;7.40;99.90
45807;DHT22;31507;51.494;7.518;2024-01-30T06:13:57;7.30;99.90
45807;DHT22;31507;51.494;7.518;2024-01-30T06:16:22;7.30;99.90
45807;DHT22;31507;51.494;7.518;2024-01-30T06:18:48;7.20;99.90
45807;DHT22;31507;51.494;7.518;2024-01-30T06:23:41;7.20;99.90
45807;DHT22;31507;51.494;7.518;2024-01-30T06:26:07;7.20;99.90
45807;DHT22;31507;51.494;7.518;2024-01-30T06:28:32;7.20;99.90
45807;DHT22;31507;51.494;7.518;2024-01-30T06:30:58;7.20;99.90
45807;DHT22;31507;51.494;7.518;2024-01-30T06:33:25;7.20;99.90
45807;DHT22;31507;51.494;7.518;2024-01-30T06:35:51;7.10;99.90
45807;DHT22;31507;51.494;7.518;2024-01-30T06:38:16;7.20;99.90
45807;DHT22;31507;51.494;7.518;2024-01-30T06:40:42;7.20;99.90
45807;DHT22;31507;51.494;7.518;2024-01-30T06:43:08;7.30;99.90
45807;DHT22;31507;51.494;7.518;2024-01-30T06:45:33;7.30;99.90
45807;DHT22;31507;51.494;7.518;2024-01-30T06:48:00;7.40;99.90
45807;DHT22;31507;51.494;7.518;2024-01-30T06:50:25;7.40;99.90
45807;DHT22;31507;51.494;7.518;2024-01-30T06:52:51;7.50;99.90
45807;DHT22;31507;51.494;7.518;2024-01-30T06:55:17;7.50;99.90
45807;DHT22;31507;51.494;7.518;2024-01-30T06:57:43;7.50;99.90
45807;DHT22;31507;51.494;7.518;2024-01-30T07:00:08;7.50;99.90
45807;DHT22;31507;51.494;7.518;2024-01-30T07:02:34;7.60;99.90
45807;DHT22;31507;51.494;7.518;2024-01-30T07:04:59;7.60;99.90
45807;DHT22;31507;51.494;7.518;2024-01-30T07:07:25;7.60;99.90
45807;DHT22;31507;51.494;7.518;2024-01-30T07:09:51;7.70;99.90
45807;DHT22;31507;51.494;7.518;2024-01-30T07:12:24;7.70;99.90
45807;DHT22;31507;51.494;7.518;2024-01-30T07:14:51;7.70;99.90
45807;DHT22;31507;51.494;7.518;2024-01-30T07:17:16;7.80;99.90
45807;DHT22;31507;51.494;7.518;2024-01-30T07:19:42;7.80;99.90
45807;DHT22;31507;51.494;7.518;2024-01-30T07:22:08;7.90;99.90
45807;DHT22;31507;51.494;7.518;2024-01-30T07:24:33;7.90;99.90
45807;DHT22;31507;51.494;7.518;2024-01-30T07:26:59;7.90;99.90
45807;DHT22;31507;51.494;7.518;2024-01-30T07:29:24;7.90;99.90
45807;DHT22;31507;51.494;7.518;2024-01-30T07:31:50;8.00;99.90
45807;DHT22;31507;51.494;7.518;2024-01-30T07:34:15;8.00;99.90
45807;DHT22;31507;51.494;7.518;2024-01-30T07:36:41;8.00;99.90
45807;DHT22;31507;51.494;7.518;2024-01-30T07:39:07;8.10;99.90
45807;DHT22;31507;51.494;7.518;2024-01-30T07:41:32;8.10;99.90
45807;DHT22;31507;51.494;7.518;2024-01-30T07:43:58;8.10;99.90
45807;DHT22;31507;51.494;7.518;2024-01-30T07:46:24;8.10;99.90
45807;DHT22;31507;51.494;7.518;2024-01-30T07:48:49;8.10;99.90
45807;DHT22;31507;51.494;7.518;2024-01-30T07:51:15;8.20;99.90
45807;DHT22;31507;51.494;7.518;2024-01-30T07:53:40;8.20;99.90
45807;DHT22;31507;51.494;7.518;2024-01-30T07:56:07;8.20;99.90
45807;DHT22;31507;51.494;7.518;2024-01-30T07:58:32;8.30;99.90
45807;DHT22;31507;51.494;7.518;2024-01-30T08:00:58;8.30;99.90
45807;DHT22;31507;51.494;7.518;2024-01-30T08:03:23;8.30;99.90
45807;DHT22;31507;51.494;7.518;2024-01-30T08:05:49;8.40;99.90
45807;DHT22;31507;51.494;7.518;2024-01-30T08:08:15;8.40;99.90
45807;DHT22;31507;51.494;7.518;2024-01-30T08:10:40;8.50;99.90
45807;DHT22;31507;51.494;7.518;2024-01-30T08:13:06;8.50;99.90
45807;DHT22;31507;51.494;7.518;2024-01-30T08:15:31;8.60;99.90
45807;DHT22;31507;51.494;7.518;2024-01-30T08:17:57;8.60;99.90
45807;DHT22;31507;51.494;7.518;2024-01-30T08:20:24;8.60;99.90
45807;DHT22;31507;51.494;7.518;2024-01-30T08:22:50;8.70;99.90
45807;DHT22;31507;51.494;7.518;2024-01-30T08:25:15;8.80;99.90
45807;DHT22;31507;51.494;7.518;2024-01-30T08:27:41;8.80;99.90
45807;DHT22;31507;51.494;7.518;2024-01-30T08:30:07;9.00;99.90
45807;DHT22;31507;51.494;7.518;2024-01-30T08:32:32;9.00;99.90
45807;DHT22;31507;51.494;7.518;2024-01-30T08:34:58;9.10;99.90
45807;DHT22;31507;51.494;7.518;2024-01-30T08:37:23;9.20;99.90
45807;DHT22;31507;51.494;7.518;2024-01-30T08:39:49;9.20;99.90
45807;DHT22;31507;51.494;7.518;2024-01-30T08:42:14;9.20;99.90
45807;DHT22;31507;51.494;7.518;2024-01-30T08:44:40;9.30;99.90
45807;DHT22;31507;51.494;7.518;2024-01-30T08:47:05;9.30;99.90
45807;DHT22;31507;51.494;7.518;2024-01-30T08:49:31;9.40;99.90
45807;DHT22;31507;51.494;7.518;2024-01-30T08:51:56;9.40;99.90
45807;DHT22;31507;51.494;7.518;2024-01-30T08:54:23;9.50;99.90
45807;DHT22;31507;51.494;7.518;2024-01-30T08:56:49;9.50;99.90
45807;DHT22;31507;51.494;7.518;2024-01-30T08:59:14;9.60;99.90
45807;DHT22;31507;51.494;7.518;2024-01-30T09:01:40;9.60;99.90
45807;DHT22;31507;51.494;7.518;2024-01-30T09:04:05;9.70;99.90
45807;DHT22;31507;51.494;7.518;2024-01-30T09:06:31;9.70;99.90
45807;DHT22;31507;51.494;7.518;2024-01-30T09:08:56;9.70;99.90
45807;DHT22;31507;51.494;7.518;2024-01-30T09:11:23;9.80;99.90
45807;DHT22;31507;51.494;7.518;2024-01-30T09:13:48;9.80;99.90
45807;DHT22;31507;51.494;7.518;2024-01-30T09:16:14;9.80;99.90
45807;DHT22;31507;51.494;7.518;2024-01-30T09:18:41;9.90;99.90
45807;DHT22;31507;51.494;7.518;2024-01-30T09:21:06;10.00;99.90
45807;DHT22;31507;51.494;7.518;2024-01-30T09:23:32;10.10;99.90
45807;DHT22;31507;51.494;7.518;2024-01-30T09:25:58;10.10;99.90
45807;DHT22;31507;51.494;7.518;2024-01-30T09:28:24;10.20;99.90
45807;DHT22;31507;51.494;7.518;2024-01-30T09:30:49;10.30;99.90
45807;DHT22;31507;51.494;7.518;2024-01-30T09:33:15;10.40;99.90
45807;DHT22;31507;51.494;7.518;2024-01-30T09:35:40;10.50;99.90
45807;DHT22;31507;51.494;7.518;2024-01-30T09:38:06;10.50;99.90
45807;DHT22;31507;51.494;7.518;2024-01-30T09:40:31;10.60;99.90
45807;DHT22;31507;51.494;7.518;2024-01-30T09:42:57;10.70;99.30
45807;DHT22;31507;51.494;7.518;2024-01-30T09:45:25;10.70;98.50
45807;DHT22;31507;51.494;7.518;2024-01-30T09:47:51;10.80;98.30
45807;DHT22;31507;51.494;7.518;2024-01-30T09:50:17;10.90;96.10
45807;DHT22;31507;51.494;7.518;2024-01-30T09:52:43;11.00;94.30
45807;DHT22;31507;51.494;7.518;2024-01-30T09:55:09;11.10;92.90
45807;DHT22;31507;51.494;7.518;2024-01-30T09:57:35;11.20;90.80
45807;DHT22;31507;51.494;7.518;2024-01-30T10:00:00;11.20;89.30
45807;DHT22;31507;51.494;7.518;2024-01-30T10:02:26;11.20;88.50
45807;DHT22;31507;51.494;7.518;2024-01-30T10:04:52;11.20;88.70
45807;DHT22;31507;51.494;7.518;2024-01-30T10:07:18;11.20;84.20
45807;DHT22;31507;51.494;7.518;2024-01-30T10:09:43;11.20;87.80
45807;DHT22;31507;51.494;7.518;2024-01-30T10:12:09;11.30;85.40
45807;DHT22;31507;51.494;7.518;2024-01-30T10:14:41;11.30;82.30
45807;DHT22;31507;51.494;7.518;2024-01-30T10:17:10;11.30;84.00
45807;DHT22;31507;51.494;7.518;2024-01-30T10:19:36;11.40;82.30
45807;DHT22;31507;51.494;7.518;2024-01-30T10:22:02;11.60;77.50
45807;DHT22;31507;51.494;7.518;2024-01-30T10:24:27;11.60;71.90
45807;DHT22;31507;51.494;7.518;2024-01-30T10:26:54;11.60;72.20
45807;DHT22;31507;51.494;7.518;2024-01-30T10:29:20;11.70;70.60
45807;DHT22;31507;51.494;7.518;2024-01-30T10:31:45;11.70;66.80
45807;DHT22;31507;51.494;7.518;2024-01-30T10:34:12;11.70;69.10
45807;DHT22;31507;51.494;7.518;2024-01-30T10:36:40;11.80;68.40
45807;DHT22;31507;51.494;7.518;2024-01-30T10:39:08;11.90;62.40
45807;DHT22;31507;51.494;7.518;2024-01-30T10:41:35;12.10;57.80
45807;DHT22;31507;51.494;7.518;2024-01-30T10:44:08;12.20;53.10
45807;DHT22;31507;51.494;7.518;2024-01-30T10:46:33;12.50;48.30
45807;DHT22;31507;51.494;7.518;2024-01-30T10:49:00;12.90;35.60
45807;DHT22;31507;51.494;7.518;2024-01-30T10:51:26;13.20;28.80
45807;DHT22;31507;51.494;7.518;2024-01-30T10:53:51;13.10;26.90
45807;DHT22;31507;51.494;7.518;2024-01-30T10:56:17;12.90;27.50
45807;DHT22;31507;51.494;7.518;2024-01-30T10:58:44;12.70;31.00
45807;DHT22;31507;51.494;7.518;2024-01-30T11:01:09;12.60;34.20
45807;DHT22;31507;51.494;7.518;2024-01-30T11:03:35;12.50;34.90
45807;DHT22;31507;51.494;7.518;2024-01-30T11:06:02;12.50;33.70
45807;DHT22;31507;51.494;7.518;2024-01-30T11:08:27;12.70;32.30
45807;DHT22;31507;51.494;7.518;2024-01-30T11:10:57;12.70;29.40
45807;DHT22;31507;51.494;7.518;2024-01-30T11:13:31;12.90;27.40
45807;DHT22;31507;51.494;7.518;2024-01-30T11:16:00;13.10;24.20
45807;DHT22;31507;51.494;7.518;2024-01-30T11:18:28;13.20;24.40
45807;DHT22;31507;51.494;7.518;2024-01-30T11:20:58;13.30;19.50
45807;DHT22;31507;51.494;7.518;2024-01-30T11:23:26;13.50;17.30
45807;DHT22;31507;51.494;7.518;2024-01-30T11:25:56;13.60;16.10
45807;DHT22;31507;51.494;7.518;2024-01-30T11:28:21;13.70;13.50
45807;DHT22;31507;51.494;7.518;2024-01-30T11:30:47;13.90;10.80
45807;DHT22;31507;51.494;7.518;2024-01-30T11:33:26;14.00;10.00
45807;DHT22;31507;51.494;7.518;2024-01-30T11:35:52;14.00;10.70
45807;DHT22;31507;51.494;7.518;2024-01-30T11:38:18;13.80;9.00
45807;DHT22;31507;51.494;7.518;2024-01-30T11:40:43;13.70;11.00
45807;DHT22;31507;51.494;7.518;2024-01-30T11:43:09;13.60;12.90
45807;DHT22;31507;51.494;7.518;2024-01-30T11:45:35;13.70;14.60
45807;DHT22;31507;51.494;7.518;2024-01-30T11:48:01;13.80;13.70
45807;DHT22;31507;51.494;7.518;2024-01-30T11:50:32;13.80;13.10
45807;DHT22;31507;51.494;7.518;2024-01-30T11:53:00;13.90;15.90
45807;DHT22;31507;51.494;7.518;2024-01-30T11:55:26;13.90;13.60
45807;DHT22;31507;51.494;7.518;2024-01-30T11:57:54;13.80;18.50
45807;DHT22;31507;51.494;7.518;2024-01-30T12:00:20;13.60;24.70
45807;DHT22;31507;51.494;7.518;2024-01-30T12:02:52;13.60;32.40
45807;DHT22;31507;51.494;7.518;2024-01-30T12:05:24;13.40;32.80
45807;DHT22;31507;51.494;7.518;2024-01-30T12:07:49;13.30;40.10
45807;DHT22;31507;51.494;7.518;2024-01-30T12:10:15;13.10;43.70
45807;DHT22;31507;51.494;7.518;2024-01-30T12:12:41;13.10;50.00
45807;DHT22;31507;51.494;7.518;2024-01-30T12:15:08;13.00;55.80
45807;DHT22;31507;51.494;7.518;2024-01-30T12:17:34;12.90;57.40
45807;DHT22;31507;51.494;7.518;2024-01-30T12:20:05;12.80;62.40
45807;DHT22;31507;51.494;7.518;2024-01-30T12:22:33;12.80;64.00
45807;DHT22;31507;51.494;7.518;2024-01-30T12:24:59;12.80;65.50
45807;DHT22;31507;51.494;7.518;2024-01-30T12:27:25;12.80;65.90
45807;DHT22;31507;51.494;7.518;2024-01-30T12:29:55;12.80;68.30
45807;DHT22;31507;51.494;7.518;2024-01-30T12:32:22;12.90;68.70
45807;DHT22;31507;51.494;7.518;2024-01-30T12:34:47;12.80;70.60
45807;DHT22;31507;51.494;7.518;2024-01-30T12:37:13;12.80;71.50
45807;DHT22;31507;51.494;7.518;2024-01-30T12:39:39;12.70;73.50
45807;DHT22;31507;51.494;7.518;2024-01-30T12:42:04;12.60;73.10
45807;DHT22;31507;51.494;7.518;2024-01-30T12:44:30;12.50;79.60
45807;DHT22;31507;51.494;7.518;2024-01-30T12:46:55;12.50;85.00
45807;DHT22;31507;51.494;7.518;2024-01-30T12:49:21;12.40;87.40
45807;DHT22;31507;51.494;7.518;2024-01-30T12:51:46;12.40;90.10
45807;DHT22;31507;51.494;7.518;2024-01-30T12:54:12;12.30;90.70
45807;DHT22;31507;51.494;7.518;2024-01-30T12:56:38;12.30;93.10
45807;DHT22;31507;51.494;7.518;2024-01-30T12:59:03;12.20;95.30
45807;DHT22;31507;51.494;7.518;2024-01-30T13:01:29;12.20;95.50
45807;DHT22;31507;51.494;7.518;2024-01-30T13:03:54;12.10;98.00
45807;DHT22;31507;51.494;7.518;2024-01-30T13:06:22;12.10;98.50
45807;DHT22;31507;51.494;7.518;2024-01-30T13:08:48;12.00;99.90
45807;DHT22;31507;51.494;7.518;2024-01-30T13:11:13;12.00;98.20
45807;DHT22;31507;51.494;7.518;2024-01-30T13:13:39;12.00;99.90
45807;DHT22;31507;51.494;7.518;2024-01-30T13:16:04;11.90;99.90
45807;DHT22;31507;51.494;7.518;2024-01-30T13:18:31;11.90;99.90
45807;DHT22;31507;51.494;7.518;2024-01-30T13:20:56;11.90;99.90
45807;DHT22;31507;51.494;7.518;2024-01-30T13:23:22;11.90;99.90
45807;DHT22;31507;51.494;7.518;2024-01-30T13:25:48;11.90;99.90
45807;DHT22;31507;51.494;7.518;2024-01-30T13:28:13;11.90;99.90
45807;DHT22;31507;51.494;7.518;2024-01-30T13:30:39;11.90;99.90
45807;DHT22;31507;51.494;7.518;2024-01-30T13:33:04;12.00;99.90
45807;DHT22;31507;51.494;7.518;2024-01-30T13:35:30;11.90;99.90
45807;DHT22;31507;51.494;7.518;2024-01-30T13:37:55;11.90;99.90
45807;DHT22;31507;51.494;7.518;2024-01-30T13:40:21;11.90;99.90
45807;DHT22;31507;51.494;7.518;2024-01-30T13:42:47;11.90;99.90
45807;DHT22;31507;51.494;7.518;2024-01-30T13:45:13;11.90;99.90
45807;DHT22;31507;51.494;7.518;2024-01-30T13:47:38;11.80;99.90
45807;DHT22;31507;51.494;7.518;2024-01-30T13:50:04;11.80;99.90
45807;DHT22;31507;51.494;7.518;2024-01-30T13:52:30;11.80;99.90
45807;DHT22;31507;51.494;7.518;2024-01-30T13:54:55;11.80;99.90
45807;DHT22;31507;51.494;7.518;2024-01-30T13:57:21;11.70;99.90
45807;DHT22;31507;51.494;7.518;2024-01-30T13:59:46;11.70;99.90
45807;DHT22;31507;51.494;7.518;2024-01-30T14:02:12;11.60;99.90
45807;DHT22;31507;51.494;7.518;2024-01-30T14:04:37;11.60;99.90
45807;DHT22;31507;51.494;7.518;2024-01-30T14:07:03;11.60;99.90
45807;DHT22;31507;51.494;7.518;2024-01-30T14:09:29;11.50;99.90
45807;DHT22;31507;51.494;7.518;2024-01-30T14:11:55;11.50;99.90
45807;DHT22;31507;51.494;7.518;2024-01-30T14:14:20;11.40;99.90
45807;DHT22;31507;51.494;7.518;2024-01-30T14:16:45;11.40;99.90
45807;DHT22;31507;51.494;7.518;2024-01-30T14:19:11;11.40;99.90
45807;DHT22;31507;51.494;7.518;2024-01-30T14:21:36;11.40;99.90
45807;DHT22;31507;51.494;7.518;2024-01-30T14:24:02;11.40;99.90
45807;DHT22;31507;51.494;7.518;2024-01-30T14:26:28;11.30;99.90
45807;DHT22;31507;51.494;7.518;2024-01-30T14:28:53;11.30;99.90
45807;DHT22;31507;51.494;7.518;2024-01-30T14:31:20;11.40;99.90
45807;DHT22;31507;51.494;7.518;2024-01-30T14:33:46;11.40;99.90
45807;DHT22;31507;51.494;7.518;2024-01-30T14:36:12;11.40;99.90
45807;DHT22;31507;51.494;7.518;2024-01-30T14:38:39;11.40;99.90
45807;DHT22;31507;51.494;7.518;2024-01-30T14:41:04;11.40;99.90
45807;DHT22;31507;51.494;7.518;2024-01-30T14:43:31;11.40;99.90
45807;DHT22;31507;51.494;7.518;2024-01-30T14:45:56;11.40;99.90
45807;DHT22;31507;51.494;7.518;2024-01-30T14:48:22;11.50;99.90
45807;DHT22;31507;51.494;7.518;2024-01-30T14:50:47;11.50;99.90
45807;DHT22;31507;51.494;7.518;2024-01-30T14:53:13;11.60;99.90
45807;DHT22;31507;51.494;7.518;2024-01-30T14:55:38;11.50;99.90
45807;DHT22;31507;51.494;7.518;2024-01-30T14:58:04;11.60;99.90
45807;DHT22;31507;51.494;7.518;2024-01-30T15:00:29;11.60;99.90
45807;DHT22;31507;51.494;7.518;2024-01-30T15:02:55;11.60;99.90
45807;DHT22;31507;51.494;7.518;2024-01-30T15:05:21;11.50;99.90
45807;DHT22;31507;51.494;7.518;2024-01-30T15:07:46;11.50;99.90
45807;DHT22;31507;51.494;7.518;2024-01-30T15:10:12;11.50;99.90
45807;DHT22;31507;51.494;7.518;2024-01-30T15:12:37;11.50;99.90
45807;DHT22;31507;51.494;7.518;2024-01-30T15:15:04;11.50;99.90
45807;DHT22;31507;51.494;7.518;2024-01-30T15:17:30;11.50;99.90
45807;DHT22;31507;51.494;7.518;2024-01-30T15:19:55;11.40;99.90
45807;DHT22;31507;51.494;7.518;2024-01-30T15:22:21;11.40;99.90
45807;DHT22;31507;51.494;7.518;2024-01-30T15:24:46;11.40;99.90
45807;DHT22;31507;51.494;7.518;2024-01-30T15:27:12;11.40;99.90
45807;DHT22;31507;51.494;7.518;2024-01-30T15:29:38;11.40;99.90
45807;DHT22;31507;51.494;7.518;2024-01-30T15:32:03;11.40;99.90
45807;DHT22;31507;51.494;7.518;2024-01-30T15:34:29;11.40;99.90